sensor_id;sensor_type;location;lat;lon;timestamp;P1;durP1;ratioP1;P2;durP2;ratioP2
75647;SDS011;66269;51.466;7.260;2023-02-26T00:01:38;6.20;;;1.90;;
75647;SDS011;66269;51.466;7.260;2023-02-26T00:04:05;5.22;;;1.73;;
75647;SDS011;66269;51.466;7.260;2023-02-26T00:06:32;5.45;;;1.80;;
75647;SDS011;66269;51.466;7.260;2023-02-26T00:08:59;3.90;;;1.45;;
75647;SDS011;66269;51.466;7.260;2023-02-26T00:11:25;4.68;;;1.50;;
75647;SDS011;66269;51.466;7.260;2023-02-26T00:13:51;4.60;;;1.63;;
75647;SDS011;66269;51.466;7.260;2023-02-26T00:18:51;4.27;;;1.50;;
75647;SDS011;66269;51.466;7.260;2023-02-26T00:21:17;4.65;;;1.50;;
75647;SDS011;66269;51.466;7.260;2023-02-26T00:23:44;5.22;;;1.73;;
75647;SDS011;66269;51.466;7.260;2023-02-26T00:26:10;4.95;;;1.55;;
75647;SDS011;66269;51.466;7.260;2023-02-26T00:28:36;3.88;;;1.50;;
75647;SDS011;66269;51.466;7.260;2023-02-26T00:31:02;4.95;;;1.70;;
75647;SDS011;66269;51.466;7.260;2023-02-26T00:33:28;4.88;;;1.60;;
75647;SDS011;66269;51.466;7.260;2023-02-26T00:35:55;4.55;;;1.50;;
75647;SDS011;66269;51.466;7.260;2023-02-26T00:38:27;6.38;;;1.80;;
75647;SDS011;66269;51.466;7.260;2023-02-26T00:40:56;5.65;;;1.80;;
75647;SDS011;66269;51.466;7.260;2023-02-26T00:43:23;5.80;;;1.75;;
75647;SDS011;66269;51.466;7.260;2023-02-26T00:48:44;4.25;;;1.67;;
75647;SDS011;66269;51.466;7.260;2023-02-26T00:53:50;4.55;;;1.60;;
75647;SDS011;66269;51.466;7.260;2023-02-26T00:56:36;3.78;;;1.50;;
75647;SDS011;66269;51.466;7.260;2023-02-26T00:59:01;4.82;;;1.67;;
75647;SDS011;66269;51.466;7.260;2023-02-26T01:01:27;5.15;;;1.60;;
75647;SDS011;66269;51.466;7.260;2023-02-26T01:03:53;5.18;;;1.88;;
75647;SDS011;66269;51.466;7.260;2023-02-26T01:06:19;3.80;;;1.50;;
75647;SDS011;66269;51.466;7.260;2023-02-26T01:11:15;4.45;;;1.52;;
75647;SDS011;66269;51.466;7.260;2023-02-26T01:13:40;5.45;;;1.88;;
75647;SDS011;66269;51.466;7.260;2023-02-26T01:16:08;4.40;;;1.70;;
75647;SDS011;66269;51.466;7.260;2023-02-26T01:21:09;4.28;;;1.65;;
75647;SDS011;66269;51.466;7.260;2023-02-26T01:23:42;4.47;;;1.40;;
75647;SDS011;66269;51.466;7.260;2023-02-26T01:26:14;5.78;;;1.80;;
75647;SDS011;66269;51.466;7.260;2023-02-26T01:28:45;3.85;;;1.40;;
75647;SDS011;66269;51.466;7.260;2023-02-26T01:31:17;4.78;;;1.58;;
75647;SDS011;66269;51.466;7.260;2023-02-26T01:33:55;5.65;;;1.70;;
75647;SDS011;66269;51.466;7.260;2023-02-26T01:36:30;4.25;;;1.55;;
75647;SDS011;66269;51.466;7.260;2023-02-26T01:39:02;4.60;;;1.70;;
75647;SDS011;66269;51.466;7.260;2023-02-26T01:41:53;4.68;;;1.70;;
75647;SDS011;66269;51.466;7.260;2023-02-26T01:49:38;4.82;;;1.52;;
75647;SDS011;66269;51.466;7.260;2023-02-26T01:52:05;5.88;;;1.60;;
75647;SDS011;66269;51.466;7.260;2023-02-26T01:54:50;4.10;;;1.50;;
75647;SDS011;66269;51.466;7.260;2023-02-26T01:57:17;5.57;;;1.75;;
75647;SDS011;66269;51.466;7.260;2023-02-26T01:59:45;4.57;;;1.60;;
75647;SDS011;66269;51.466;7.260;2023-02-26T02:02:15;4.03;;;1.60;;
75647;SDS011;66269;51.466;7.260;2023-02-26T02:04:43;4.95;;;1.60;;
75647;SDS011;66269;51.466;7.260;2023-02-26T02:07:10;4.35;;;1.40;;
75647;SDS011;66269;51.466;7.260;2023-02-26T02:09:36;4.60;;;1.50;;
75647;SDS011;66269;51.466;7.260;2023-02-26T02:15:13;5.20;;;1.63;;
75647;SDS011;66269;51.466;7.260;2023-02-26T02:25:57;4.90;;;1.40;;
75647;SDS011;66269;51.466;7.260;2023-02-26T02:36:18;4.45;;;1.48;;
75647;SDS011;66269;51.466;7.260;2023-02-26T02:41:51;5.00;;;1.67;;
75647;SDS011;66269;51.466;7.260;2023-02-26T02:46:48;5.07;;;1.73;;
75647;SDS011;66269;51.466;7.260;2023-02-26T02:49:17;5.50;;;1.50;;
75647;SDS011;66269;51.466;7.260;2023-02-26T02:51:55;3.92;;;1.38;;
75647;SDS011;66269;51.466;7.260;2023-02-26T02:54:27;4.45;;;1.48;;
75647;SDS011;66269;51.466;7.260;2023-02-26T02:57:16;5.30;;;1.60;;
75647;SDS011;66269;51.466;7.260;2023-02-26T02:59:47;4.38;;;1.50;;
75647;SDS011;66269;51.466;7.260;2023-02-26T03:02:26;4.78;;;1.70;;
75647;SDS011;66269;51.466;7.260;2023-02-26T03:04:57;4.45;;;1.42;;
75647;SDS011;66269;51.466;7.260;2023-02-26T03:07:23;4.13;;;1.50;;
75647;SDS011;66269;51.466;7.260;2023-02-26T03:09:49;5.10;;;1.45;;
75647;SDS011;66269;51.466;7.260;2023-02-26T03:12:14;5.18;;;1.45;;
75647;SDS011;66269;51.466;7.260;2023-02-26T03:14:40;4.38;;;1.42;;
75647;SDS011;66269;51.466;7.260;2023-02-26T03:17:18;4.45;;;1.40;;
75647;SDS011;66269;51.466;7.260;2023-02-26T03:28:30;4.18;;;1.52;;
75647;SDS011;66269;51.466;7.260;2023-02-26T03:31:39;3.95;;;1.48;;
75647;SDS011;66269;51.466;7.260;2023-02-26T03:36:52;4.45;;;1.50;;
75647;SDS011;66269;51.466;7.260;2023-02-26T03:39:28;4.00;;;1.30;;
75647;SDS011;66269;51.466;7.260;2023-02-26T03:42:08;4.27;;;1.43;;
75647;SDS011;66269;51.466;7.260;2023-02-26T03:44:43;4.78;;;1.60;;
75647;SDS011;66269;51.466;7.260;2023-02-26T03:47:17;5.30;;;1.70;;
75647;SDS011;66269;51.466;7.260;2023-02-26T03:49:51;5.45;;;1.92;;
75647;SDS011;66269;51.466;7.260;2023-02-26T03:52:21;3.42;;;1.38;;
75647;SDS011;66269;51.466;7.260;2023-02-26T03:55:00;5.15;;;1.80;;
75647;SDS011;66269;51.466;7.260;2023-02-26T03:57:31;5.00;;;1.42;;
75647;SDS011;66269;51.466;7.260;2023-02-26T03:59:56;4.45;;;1.48;;
75647;SDS011;66269;51.466;7.260;2023-02-26T04:02:24;5.40;;;1.42;;
75647;SDS011;66269;51.466;7.260;2023-02-26T04:04:57;3.72;;;1.30;;
75647;SDS011;66269;51.466;7.260;2023-02-26T04:07:26;4.30;;;1.40;;
75647;SDS011;66269;51.466;7.260;2023-02-26T04:09:52;4.82;;;1.63;;
75647;SDS011;66269;51.466;7.260;2023-02-26T04:12:21;3.50;;;1.40;;
75647;SDS011;66269;51.466;7.260;2023-02-26T04:14:52;3.53;;;1.27;;
75647;SDS011;66269;51.466;7.260;2023-02-26T04:17:18;4.40;;;1.55;;
75647;SDS011;66269;51.466;7.260;2023-02-26T04:19:44;5.40;;;1.60;;
75647;SDS011;66269;51.466;7.260;2023-02-26T04:22:09;3.40;;;1.38;;
75647;SDS011;66269;51.466;7.260;2023-02-26T04:24:36;5.43;;;1.63;;
75647;SDS011;66269;51.466;7.260;2023-02-26T04:27:01;3.22;;;1.25;;
75647;SDS011;66269;51.466;7.260;2023-02-26T04:29:27;3.85;;;1.50;;
75647;SDS011;66269;51.466;7.260;2023-02-26T04:31:53;4.50;;;1.48;;
75647;SDS011;66269;51.466;7.260;2023-02-26T04:34:18;3.65;;;1.40;;
75647;SDS011;66269;51.466;7.260;2023-02-26T04:36:44;3.80;;;1.40;;
75647;SDS011;66269;51.466;7.260;2023-02-26T04:39:10;4.20;;;1.40;;
75647;SDS011;66269;51.466;7.260;2023-02-26T04:41:36;4.35;;;1.48;;
75647;SDS011;66269;51.466;7.260;2023-02-26T04:44:03;3.75;;;1.33;;
75647;SDS011;66269;51.466;7.260;2023-02-26T04:46:29;4.20;;;1.70;;
75647;SDS011;66269;51.466;7.260;2023-02-26T04:48:55;3.42;;;1.48;;
75647;SDS011;66269;51.466;7.260;2023-02-26T04:51:20;4.00;;;1.30;;
75647;SDS011;66269;51.466;7.260;2023-02-26T04:53:46;4.40;;;1.50;;
75647;SDS011;66269;51.466;7.260;2023-02-26T04:56:11;4.68;;;1.50;;
75647;SDS011;66269;51.466;7.260;2023-02-26T04:58:37;3.72;;;1.33;;
75647;SDS011;66269;51.466;7.260;2023-02-26T05:01:03;4.07;;;1.40;;
75647;SDS011;66269;51.466;7.260;2023-02-26T05:03:28;5.07;;;1.63;;
75647;SDS011;66269;51.466;7.260;2023-02-26T05:05:54;4.80;;;1.42;;
75647;SDS011;66269;51.466;7.260;2023-02-26T05:08:19;4.78;;;1.35;;
75647;SDS011;66269;51.466;7.260;2023-02-26T05:10:45;3.92;;;1.30;;
75647;SDS011;66269;51.466;7.260;2023-02-26T05:13:11;5.68;;;1.58;;
75647;SDS011;66269;51.466;7.260;2023-02-26T05:15:36;4.95;;;1.90;;
75647;SDS011;66269;51.466;7.260;2023-02-26T05:18:02;3.67;;;1.20;;
75647;SDS011;66269;51.466;7.260;2023-02-26T05:20:28;4.30;;;1.42;;
75647;SDS011;66269;51.466;7.260;2023-02-26T05:22:53;3.65;;;1.30;;
75647;SDS011;66269;51.466;7.260;2023-02-26T05:25:19;4.18;;;1.40;;
75647;SDS011;66269;51.466;7.260;2023-02-26T05:27:44;5.22;;;1.50;;
75647;SDS011;66269;51.466;7.260;2023-02-26T05:30:12;4.85;;;1.30;;
75647;SDS011;66269;51.466;7.260;2023-02-26T05:32:39;4.50;;;1.55;;
75647;SDS011;66269;51.466;7.260;2023-02-26T05:35:05;3.50;;;1.30;;
75647;SDS011;66269;51.466;7.260;2023-02-26T05:37:31;3.45;;;1.38;;
75647;SDS011;66269;51.466;7.260;2023-02-26T05:39:56;3.70;;;1.30;;
75647;SDS011;66269;51.466;7.260;2023-02-26T05:42:22;4.38;;;1.45;;
75647;SDS011;66269;51.466;7.260;2023-02-26T05:44:48;3.92;;;1.38;;
75647;SDS011;66269;51.466;7.260;2023-02-26T05:47:14;5.10;;;1.30;;
75647;SDS011;66269;51.466;7.260;2023-02-26T05:49:40;4.10;;;1.30;;
75647;SDS011;66269;51.466;7.260;2023-02-26T05:52:05;4.47;;;1.30;;
75647;SDS011;66269;51.466;7.260;2023-02-26T05:54:31;3.97;;;1.30;;
75647;SDS011;66269;51.466;7.260;2023-02-26T05:56:57;3.30;;;1.27;;
75647;SDS011;66269;51.466;7.260;2023-02-26T05:59:22;3.78;;;1.40;;
75647;SDS011;66269;51.466;7.260;2023-02-26T06:01:48;5.35;;;1.60;;
75647;SDS011;66269;51.466;7.260;2023-02-26T06:04:14;4.72;;;1.50;;
75647;SDS011;66269;51.466;7.260;2023-02-26T06:06:39;3.88;;;1.48;;
75647;SDS011;66269;51.466;7.260;2023-02-26T06:09:05;5.00;;;1.60;;
75647;SDS011;66269;51.466;7.260;2023-02-26T06:11:31;4.32;;;1.50;;
75647;SDS011;66269;51.466;7.260;2023-02-26T06:13:56;4.45;;;1.40;;
75647;SDS011;66269;51.466;7.260;2023-02-26T06:16:22;3.83;;;1.35;;
75647;SDS011;66269;51.466;7.260;2023-02-26T06:18:48;4.15;;;1.48;;
75647;SDS011;66269;51.466;7.260;2023-02-26T06:21:13;5.38;;;1.50;;
75647;SDS011;66269;51.466;7.260;2023-02-26T06:23:39;3.30;;;1.30;;
75647;SDS011;66269;51.466;7.260;2023-02-26T06:26:05;3.35;;;1.20;;
75647;SDS011;66269;51.466;7.260;2023-02-26T06:28:31;4.65;;;1.35;;
75647;SDS011;66269;51.466;7.260;2023-02-26T06:30:57;3.50;;;1.20;;
75647;SDS011;66269;51.466;7.260;2023-02-26T06:33:23;3.70;;;1.20;;
75647;SDS011;66269;51.466;7.260;2023-02-26T06:35:48;2.95;;;1.15;;
75647;SDS011;66269;51.466;7.260;2023-02-26T06:38:14;4.15;;;1.30;;
75647;SDS011;66269;51.466;7.260;2023-02-26T06:40:40;3.38;;;1.17;;
75647;SDS011;66269;51.466;7.260;2023-02-26T06:43:06;5.63;;;1.60;;
75647;SDS011;66269;51.466;7.260;2023-02-26T06:45:34;4.18;;;1.30;;
75647;SDS011;66269;51.466;7.260;2023-02-26T06:48:00;3.20;;;1.20;;
75647;SDS011;66269;51.466;7.260;2023-02-26T06:50:26;3.60;;;1.33;;
75647;SDS011;66269;51.466;7.260;2023-02-26T06:52:52;3.80;;;1.25;;
75647;SDS011;66269;51.466;7.260;2023-02-26T06:55:17;3.08;;;1.30;;
75647;SDS011;66269;51.466;7.260;2023-02-26T06:57:43;3.75;;;1.20;;
75647;SDS011;66269;51.466;7.260;2023-02-26T07:00:08;4.85;;;1.48;;
75647;SDS011;66269;51.466;7.260;2023-02-26T07:02:34;4.65;;;1.40;;
75647;SDS011;66269;51.466;7.260;2023-02-26T07:05:00;4.60;;;1.30;;
75647;SDS011;66269;51.466;7.260;2023-02-26T07:07:26;3.85;;;1.40;;
75647;SDS011;66269;51.466;7.260;2023-02-26T07:09:52;4.47;;;1.10;;
75647;SDS011;66269;51.466;7.260;2023-02-26T07:12:17;3.80;;;1.25;;
75647;SDS011;66269;51.466;7.260;2023-02-26T07:14:43;3.05;;;1.13;;
75647;SDS011;66269;51.466;7.260;2023-02-26T07:17:09;3.72;;;1.30;;
75647;SDS011;66269;51.466;7.260;2023-02-26T07:19:44;3.88;;;1.30;;
75647;SDS011;66269;51.466;7.260;2023-02-26T07:22:12;5.07;;;1.52;;
75647;SDS011;66269;51.466;7.260;2023-02-26T07:24:38;3.67;;;1.30;;
75647;SDS011;66269;51.466;7.260;2023-02-26T07:27:04;3.90;;;1.30;;
75647;SDS011;66269;51.466;7.260;2023-02-26T07:29:30;3.40;;;1.25;;
75647;SDS011;66269;51.466;7.260;2023-02-26T07:31:56;3.38;;;1.23;;
75647;SDS011;66269;51.466;7.260;2023-02-26T07:34:21;5.22;;;1.38;;
75647;SDS011;66269;51.466;7.260;2023-02-26T07:36:47;3.90;;;1.38;;
75647;SDS011;66269;51.466;7.260;2023-02-26T07:39:12;4.55;;;1.30;;
75647;SDS011;66269;51.466;7.260;2023-02-26T07:41:38;3.00;;;1.20;;
75647;SDS011;66269;51.466;7.260;2023-02-26T07:44:03;4.72;;;1.30;;
75647;SDS011;66269;51.466;7.260;2023-02-26T07:46:29;4.00;;;1.20;;
75647;SDS011;66269;51.466;7.260;2023-02-26T07:48:55;3.78;;;1.30;;
75647;SDS011;66269;51.466;7.260;2023-02-26T07:51:20;3.85;;;1.30;;
75647;SDS011;66269;51.466;7.260;2023-02-26T07:53:46;4.10;;;1.50;;
75647;SDS011;66269;51.466;7.260;2023-02-26T07:56:11;4.18;;;1.38;;
75647;SDS011;66269;51.466;7.260;2023-02-26T07:58:37;3.88;;;1.35;;
75647;SDS011;66269;51.466;7.260;2023-02-26T08:01:02;3.38;;;1.20;;
75647;SDS011;66269;51.466;7.260;2023-02-26T08:03:28;3.58;;;1.20;;
75647;SDS011;66269;51.466;7.260;2023-02-26T08:05:53;3.97;;;1.30;;
75647;SDS011;66269;51.466;7.260;2023-02-26T08:08:19;5.28;;;1.50;;
75647;SDS011;66269;51.466;7.260;2023-02-26T08:10:44;4.28;;;1.38;;
75647;SDS011;66269;51.466;7.260;2023-02-26T08:13:10;4.03;;;1.33;;
75647;SDS011;66269;51.466;7.260;2023-02-26T08:15:36;4.32;;;1.30;;
75647;SDS011;66269;51.466;7.260;2023-02-26T08:18:01;4.07;;;1.40;;
75647;SDS011;66269;51.466;7.260;2023-02-26T08:20:27;4.60;;;1.50;;
75647;SDS011;66269;51.466;7.260;2023-02-26T08:22:53;3.65;;;1.30;;
75647;SDS011;66269;51.466;7.260;2023-02-26T08:25:18;4.10;;;1.50;;
75647;SDS011;66269;51.466;7.260;2023-02-26T08:27:44;4.72;;;1.50;;
75647;SDS011;66269;51.466;7.260;2023-02-26T08:30:09;4.65;;;1.67;;
75647;SDS011;66269;51.466;7.260;2023-02-26T08:32:35;4.20;;;1.35;;
75647;SDS011;66269;51.466;7.260;2023-02-26T08:35:03;4.82;;;1.33;;
75647;SDS011;66269;51.466;7.260;2023-02-26T08:37:30;4.30;;;1.33;;
75647;SDS011;66269;51.466;7.260;2023-02-26T08:39:56;4.05;;;1.30;;
75647;SDS011;66269;51.466;7.260;2023-02-26T08:42:22;3.45;;;1.23;;
75647;SDS011;66269;51.466;7.260;2023-02-26T08:44:47;3.45;;;1.25;;
75647;SDS011;66269;51.466;7.260;2023-02-26T08:47:13;3.55;;;1.33;;
75647;SDS011;66269;51.466;7.260;2023-02-26T08:49:39;3.30;;;1.20;;
75647;SDS011;66269;51.466;7.260;2023-02-26T08:52:04;4.78;;;1.55;;
75647;SDS011;66269;51.466;7.260;2023-02-26T08:54:30;4.63;;;1.48;;
75647;SDS011;66269;51.466;7.260;2023-02-26T08:56:56;3.65;;;1.35;;
75647;SDS011;66269;51.466;7.260;2023-02-26T08:59:22;3.63;;;1.20;;
75647;SDS011;66269;51.466;7.260;2023-02-26T09:01:48;4.90;;;1.50;;
75647;SDS011;66269;51.466;7.260;2023-02-26T09:04:14;4.38;;;1.42;;
75647;SDS011;66269;51.466;7.260;2023-02-26T09:06:40;4.65;;;1.45;;
75647;SDS011;66269;51.466;7.260;2023-02-26T09:09:05;4.18;;;1.35;;
75647;SDS011;66269;51.466;7.260;2023-02-26T09:11:31;3.55;;;1.35;;
75647;SDS011;66269;51.466;7.260;2023-02-26T09:13:58;3.88;;;1.30;;
75647;SDS011;66269;51.466;7.260;2023-02-26T09:16:24;3.88;;;1.40;;
75647;SDS011;66269;51.466;7.260;2023-02-26T09:18:50;4.82;;;1.40;;
75647;SDS011;66269;51.466;7.260;2023-02-26T09:21:16;4.38;;;1.33;;
75647;SDS011;66269;51.466;7.260;2023-02-26T09:23:41;4.10;;;1.52;;
75647;SDS011;66269;51.466;7.260;2023-02-26T09:26:07;3.55;;;1.33;;
75647;SDS011;66269;51.466;7.260;2023-02-26T09:28:34;5.10;;;1.52;;
75647;SDS011;66269;51.466;7.260;2023-02-26T09:30:59;5.32;;;1.70;;
75647;SDS011;66269;51.466;7.260;2023-02-26T09:33:25;5.00;;;1.40;;
75647;SDS011;66269;51.466;7.260;2023-02-26T09:35:51;4.15;;;1.42;;
75647;SDS011;66269;51.466;7.260;2023-02-26T09:38:17;4.28;;;1.30;;
75647;SDS011;66269;51.466;7.260;2023-02-26T09:43:24;5.38;;;1.58;;
75647;SDS011;66269;51.466;7.260;2023-02-26T09:45:51;5.20;;;1.50;;
75647;SDS011;66269;51.466;7.260;2023-02-26T09:48:20;3.40;;;1.38;;
75647;SDS011;66269;51.466;7.260;2023-02-26T09:50:52;4.25;;;1.33;;
75647;SDS011;66269;51.466;7.260;2023-02-26T09:53:21;4.55;;;1.40;;
75647;SDS011;66269;51.466;7.260;2023-02-26T09:58:43;4.63;;;1.40;;
75647;SDS011;66269;51.466;7.260;2023-02-26T10:10:06;3.78;;;1.45;;
75647;SDS011;66269;51.466;7.260;2023-02-26T10:12:39;5.30;;;1.40;;
75647;SDS011;66269;51.466;7.260;2023-02-26T10:20:30;4.20;;;1.40;;
75647;SDS011;66269;51.466;7.260;2023-02-26T10:29:06;3.83;;;1.30;;
75647;SDS011;66269;51.466;7.260;2023-02-26T10:31:54;4.75;;;1.30;;
75647;SDS011;66269;51.466;7.260;2023-02-26T10:34:24;3.65;;;1.27;;
75647;SDS011;66269;51.466;7.260;2023-02-26T10:43:09;3.17;;;1.27;;
75647;SDS011;66269;51.466;7.260;2023-02-26T10:51:00;4.50;;;1.40;;
75647;SDS011;66269;51.466;7.260;2023-02-26T10:53:46;4.78;;;1.38;;
75647;SDS011;66269;51.466;7.260;2023-02-26T10:56:21;3.55;;;1.40;;
75647;SDS011;66269;51.466;7.260;2023-02-26T10:58:50;4.72;;;1.52;;
75647;SDS011;66269;51.466;7.260;2023-02-26T11:01:20;3.95;;;1.40;;
75647;SDS011;66269;51.466;7.260;2023-02-26T11:03:48;4.20;;;1.40;;
75647;SDS011;66269;51.466;7.260;2023-02-26T11:06:20;3.00;;;1.25;;
75647;SDS011;66269;51.466;7.260;2023-02-26T11:08:52;3.28;;;1.17;;
75647;SDS011;66269;51.466;7.260;2023-02-26T11:14:05;3.72;;;1.42;;
75647;SDS011;66269;51.466;7.260;2023-02-26T11:16:32;2.75;;;1.08;;
75647;SDS011;66269;51.466;7.260;2023-02-26T11:18:59;4.70;;;1.45;;
75647;SDS011;66269;51.466;7.260;2023-02-26T11:21:29;3.33;;;1.27;;
75647;SDS011;66269;51.466;7.260;2023-02-26T11:24:14;4.90;;;1.42;;
75647;SDS011;66269;51.466;7.260;2023-02-26T11:26:47;4.55;;;1.50;;
75647;SDS011;66269;51.466;7.260;2023-02-26T11:29:14;3.78;;;1.30;;
75647;SDS011;66269;51.466;7.260;2023-02-26T11:31:44;3.97;;;1.40;;
75647;SDS011;66269;51.466;7.260;2023-02-26T11:34:13;4.75;;;1.27;;
75647;SDS011;66269;51.466;7.260;2023-02-26T11:36:39;4.38;;;1.52;;
75647;SDS011;66269;51.466;7.260;2023-02-26T11:39:07;5.05;;;1.42;;
75647;SDS011;66269;51.466;7.260;2023-02-26T11:41:43;4.80;;;1.38;;
75647;SDS011;66269;51.466;7.260;2023-02-26T11:44:18;3.40;;;1.30;;
75647;SDS011;66269;51.466;7.260;2023-02-26T11:46:54;3.28;;;1.20;;
75647;SDS011;66269;51.466;7.260;2023-02-26T11:49:22;3.97;;;1.40;;
75647;SDS011;66269;51.466;7.260;2023-02-26T11:52:53;4.50;;;1.40;;
75647;SDS011;66269;51.466;7.260;2023-02-26T11:54:53;3.65;;;1.40;;
75647;SDS011;66269;51.466;7.260;2023-02-26T11:57:26;3.88;;;1.40;;
75647;SDS011;66269;51.466;7.260;2023-02-26T11:59:53;3.40;;;1.17;;
75647;SDS011;66269;51.466;7.260;2023-02-26T12:02:22;3.40;;;1.35;;
75647;SDS011;66269;51.466;7.260;2023-02-26T12:04:52;3.35;;;1.33;;
75647;SDS011;66269;51.466;7.260;2023-02-26T12:07:21;3.83;;;1.40;;
75647;SDS011;66269;51.466;7.260;2023-02-26T12:09:47;4.05;;;1.27;;
75647;SDS011;66269;51.466;7.260;2023-02-26T12:18:03;4.60;;;1.67;;
75647;SDS011;66269;51.466;7.260;2023-02-26T12:20:41;4.18;;;1.40;;
75647;SDS011;66269;51.466;7.260;2023-02-26T12:26:26;5.10;;;1.65;;
75647;SDS011;66269;51.466;7.260;2023-02-26T12:29:17;4.90;;;1.30;;
75647;SDS011;66269;51.466;7.260;2023-02-26T12:32:27;4.50;;;1.50;;
75647;SDS011;66269;51.466;7.260;2023-02-26T12:40:27;3.30;;;1.15;;
75647;SDS011;66269;51.466;7.260;2023-02-26T12:43:06;3.60;;;1.33;;
75647;SDS011;66269;51.466;7.260;2023-02-26T13:13:56;4.90;;;1.40;;
75647;SDS011;66269;51.466;7.260;2023-02-26T13:19:25;2.90;;;1.20;;
75647;SDS011;66269;51.466;7.260;2023-02-26T13:22:28;3.92;;;1.52;;
75647;SDS011;66269;51.466;7.260;2023-02-26T13:24:59;4.93;;;1.23;;
75647;SDS011;66269;51.466;7.260;2023-02-26T13:27:30;3.38;;;1.17;;
75647;SDS011;66269;51.466;7.260;2023-02-26T13:32:46;2.58;;;1.10;;
75647;SDS011;66269;51.466;7.260;2023-02-26T13:35:19;4.53;;;1.23;;
75647;SDS011;66269;51.466;7.260;2023-02-26T13:37:46;2.88;;;1.27;;
75647;SDS011;66269;51.466;7.260;2023-02-26T13:43:16;3.55;;;1.20;;
75647;SDS011;66269;51.466;7.260;2023-02-26T13:51:13;3.60;;;1.40;;
75647;SDS011;66269;51.466;7.260;2023-02-26T13:54:02;3.08;;;1.17;;
75647;SDS011;66269;51.466;7.260;2023-02-26T14:06:47;3.78;;;1.40;;
75647;SDS011;66269;51.466;7.260;2023-02-26T14:14:40;4.10;;;1.40;;
75647;SDS011;66269;51.466;7.260;2023-02-26T14:19:33;2.35;;;1.10;;
75647;SDS011;66269;51.466;7.260;2023-02-26T14:24:45;3.28;;;1.10;;
75647;SDS011;66269;51.466;7.260;2023-02-26T14:34:55;4.10;;;1.23;;
75647;SDS011;66269;51.466;7.260;2023-02-26T14:37:27;3.70;;;1.20;;
75647;SDS011;66269;51.466;7.260;2023-02-26T14:42:34;3.58;;;1.23;;
75647;SDS011;66269;51.466;7.260;2023-02-26T14:45:07;3.45;;;1.20;;
75647;SDS011;66269;51.466;7.260;2023-02-26T14:50:05;3.17;;;1.10;;
75647;SDS011;66269;51.466;7.260;2023-02-26T15:08:12;3.55;;;1.20;;
75647;SDS011;66269;51.466;7.260;2023-02-26T15:14:13;3.75;;;1.45;;
75647;SDS011;66269;51.466;7.260;2023-02-26T15:24:52;2.50;;;1.20;;
75647;SDS011;66269;51.466;7.260;2023-02-26T15:27:18;2.80;;;1.05;;
75647;SDS011;66269;51.466;7.260;2023-02-26T15:29:44;3.88;;;1.20;;
75647;SDS011;66269;51.466;7.260;2023-02-26T15:32:28;3.33;;;1.30;;
75647;SDS011;66269;51.466;7.260;2023-02-26T15:37:52;2.88;;;1.17;;
75647;SDS011;66269;51.466;7.260;2023-02-26T15:40:21;4.10;;;1.10;;
75647;SDS011;66269;51.466;7.260;2023-02-26T15:42:52;2.92;;;1.27;;
75647;SDS011;66269;51.466;7.260;2023-02-26T15:48:24;3.58;;;1.23;;
75647;SDS011;66269;51.466;7.260;2023-02-26T15:50:55;4.82;;;1.40;;
75647;SDS011;66269;51.466;7.260;2023-02-26T15:53:31;4.72;;;1.40;;
75647;SDS011;66269;51.466;7.260;2023-02-26T15:56:13;3.17;;;1.20;;
75647;SDS011;66269;51.466;7.260;2023-02-26T15:58:49;2.75;;;1.10;;
75647;SDS011;66269;51.466;7.260;2023-02-26T16:01:19;3.03;;;1.20;;
75647;SDS011;66269;51.466;7.260;2023-02-26T16:03:46;2.95;;;1.20;;
75647;SDS011;66269;51.466;7.260;2023-02-26T16:06:24;3.70;;;1.20;;
75647;SDS011;66269;51.466;7.260;2023-02-26T16:08:53;2.60;;;1.02;;
75647;SDS011;66269;51.466;7.260;2023-02-26T16:11:19;3.58;;;1.50;;
75647;SDS011;66269;51.466;7.260;2023-02-26T16:13:47;2.95;;;1.30;;
75647;SDS011;66269;51.466;7.260;2023-02-26T16:16:31;2.78;;;1.15;;
75647;SDS011;66269;51.466;7.260;2023-02-26T16:19:04;3.55;;;1.27;;
75647;SDS011;66269;51.466;7.260;2023-02-26T16:21:32;2.92;;;1.20;;
75647;SDS011;66269;51.466;7.260;2023-02-26T16:24:00;2.60;;;1.10;;
75647;SDS011;66269;51.466;7.260;2023-02-26T16:26:38;3.50;;;1.23;;
75647;SDS011;66269;51.466;7.260;2023-02-26T16:29:12;3.42;;;1.20;;
75647;SDS011;66269;51.466;7.260;2023-02-26T16:31:44;2.78;;;1.10;;
75647;SDS011;66269;51.466;7.260;2023-02-26T16:39:51;2.53;;;1.20;;
75647;SDS011;66269;51.466;7.260;2023-02-26T16:42:59;3.55;;;1.08;;
75647;SDS011;66269;51.466;7.260;2023-02-26T16:48:45;3.05;;;1.13;;
75647;SDS011;66269;51.466;7.260;2023-02-26T16:51:26;3.85;;;1.30;;
75647;SDS011;66269;51.466;7.260;2023-02-26T16:53:51;3.05;;;1.20;;
75647;SDS011;66269;51.466;7.260;2023-02-26T16:56:23;4.45;;;1.33;;
75647;SDS011;66269;51.466;7.260;2023-02-26T16:58:55;4.15;;;1.30;;
75647;SDS011;66269;51.466;7.260;2023-02-26T17:01:37;3.97;;;1.30;;
75647;SDS011;66269;51.466;7.260;2023-02-26T17:04:05;4.57;;;1.45;;
75647;SDS011;66269;51.466;7.260;2023-02-26T17:06:32;4.10;;;1.48;;
75647;SDS011;66269;51.466;7.260;2023-02-26T17:09:04;4.45;;;1.40;;
75647;SDS011;66269;51.466;7.260;2023-02-26T17:11:38;3.42;;;1.25;;
75647;SDS011;66269;51.466;7.260;2023-02-26T17:14:18;4.65;;;1.45;;
75647;SDS011;66269;51.466;7.260;2023-02-26T17:16:53;3.90;;;1.63;;
75647;SDS011;66269;51.466;7.260;2023-02-26T17:19:18;4.47;;;1.67;;
75647;SDS011;66269;51.466;7.260;2023-02-26T17:21:48;3.58;;;1.75;;
75647;SDS011;66269;51.466;7.260;2023-02-26T17:24:21;4.25;;;1.60;;
75647;SDS011;66269;51.466;7.260;2023-02-26T17:26:54;3.88;;;1.70;;
75647;SDS011;66269;51.466;7.260;2023-02-26T17:29:21;5.75;;;1.98;;
75647;SDS011;66269;51.466;7.260;2023-02-26T17:31:51;5.95;;;2.03;;
75647;SDS011;66269;51.466;7.260;2023-02-26T17:34:18;5.85;;;1.80;;
75647;SDS011;66269;51.466;7.260;2023-02-26T17:36:45;4.32;;;1.73;;
75647;SDS011;66269;51.466;7.260;2023-02-26T17:39:11;4.32;;;1.70;;
75647;SDS011;66269;51.466;7.260;2023-02-26T17:41:38;5.63;;;2.13;;
75647;SDS011;66269;51.466;7.260;2023-02-26T17:44:06;5.15;;;1.92;;
75647;SDS011;66269;51.466;7.260;2023-02-26T17:46:32;6.10;;;2.13;;
75647;SDS011;66269;51.466;7.260;2023-02-26T17:48:57;5.57;;;2.00;;
75647;SDS011;66269;51.466;7.260;2023-02-26T17:51:23;5.22;;;2.15;;
75647;SDS011;66269;51.466;7.260;2023-02-26T17:53:48;4.80;;;1.80;;
75647;SDS011;66269;51.466;7.260;2023-02-26T17:56:27;4.22;;;1.90;;
75647;SDS011;66269;51.466;7.260;2023-02-26T17:58:54;5.00;;;2.08;;
75647;SDS011;66269;51.466;7.260;2023-02-26T18:01:22;8.60;;;2.35;;
75647;SDS011;66269;51.466;7.260;2023-02-26T18:03:48;5.68;;;2.33;;
75647;SDS011;66269;51.466;7.260;2023-02-26T18:06:14;4.63;;;1.70;;
75647;SDS011;66269;51.466;7.260;2023-02-26T18:08:40;4.43;;;1.80;;
75647;SDS011;66269;51.466;7.260;2023-02-26T18:11:07;4.72;;;2.13;;
75647;SDS011;66269;51.466;7.260;2023-02-26T18:13:35;5.03;;;2.00;;
75647;SDS011;66269;51.466;7.260;2023-02-26T18:16:01;5.05;;;2.00;;
75647;SDS011;66269;51.466;7.260;2023-02-26T18:18:28;5.38;;;2.17;;
75647;SDS011;66269;51.466;7.260;2023-02-26T18:20:54;4.88;;;2.00;;
75647;SDS011;66269;51.466;7.260;2023-02-26T18:23:19;4.88;;;1.92;;
75647;SDS011;66269;51.466;7.260;2023-02-26T18:25:46;4.60;;;2.03;;
75647;SDS011;66269;51.466;7.260;2023-02-26T18:28:16;5.15;;;1.98;;
75647;SDS011;66269;51.466;7.260;2023-02-26T18:30:46;5.05;;;2.03;;
75647;SDS011;66269;51.466;7.260;2023-02-26T18:33:12;4.82;;;2.08;;
75647;SDS011;66269;51.466;7.260;2023-02-26T18:35:41;5.28;;;2.40;;
75647;SDS011;66269;51.466;7.260;2023-02-26T18:38:12;5.85;;;2.30;;
75647;SDS011;66269;51.466;7.260;2023-02-26T18:40:39;4.72;;;2.15;;
75647;SDS011;66269;51.466;7.260;2023-02-26T18:43:05;6.22;;;2.20;;
75647;SDS011;66269;51.466;7.260;2023-02-26T18:45:31;4.90;;;2.13;;
75647;SDS011;66269;51.466;7.260;2023-02-26T18:47:56;5.18;;;2.10;;